Time;durP1;ratioP1;P1;durP2;ratioP2;P2;SDS_P1;SDS_P2;PMS_P1;PMS_P2;Temp;Humidity;BMP_temperature;BMP_pressure;BME280_temperature;BME280_humidity;BME280_pressure;Samples;Min_cycle;Max_cycle;Signal;HPM_P1;HPM_P2
2023/12/05 00:01:56;;;;;;;18.15;14.15;;;;;;;;;;5015459;28;93585;-62
2023/12/05 00:04:22;;;;;;;20.75;15.32;;;;;;;;;;5020450;28;93408;-61
2023/12/05 00:06:49;;;;;;;19.60;14.55;;;;;;;;;;5019464;27;95036;-62
2023/12/05 00:09:15;;;;;;;19.98;14.68;;;;;;;;;;5018020;28;95483;-61
2023/12/05 00:11:43;;;;;;;18.20;15.13;;;;;;;;;;5022248;28;93394;-61
2023/12/05 00:14:09;;;;;;;20.38;14.80;;;;;;;;;;5022191;28;92458;-61
2023/12/05 00:16:35;;;;;;;19.33;15.15;;;;;;;;;;5021267;28;93129;-61
2023/12/05 00:19:01;;;;;;;21.00;15.40;;;;;;;;;;5017127;28;92689;-61
2023/12/05 00:21:28;;;;;;;18.10;14.55;;;;;;;;;;5013258;28;93732;-61
2023/12/05 00:23:54;;;;;;;17.88;14.48;;;;;;;;;;5018463;28;91766;-61
2023/12/05 00:26:21;;;;;;;22.50;15.60;;;;;;;;;;5020212;28;93692;-61
2023/12/05 00:28:47;;;;;;;20.95;16.10;;;;;;;;;;5013951;28;94904;-61
2023/12/05 00:31:14;;;;;;;19.65;14.82;;;;;;;;;;5014410;28;96832;-61
2023/12/05 00:33:40;;;;;;;21.20;15.82;;;;;;;;;;5020008;28;92539;-61
2023/12/05 00:36:07;;;;;;;20.65;15.05;;;;;;;;;;5025990;27;94523;-62
2023/12/05 00:38:33;;;;;;;18.13;14.90;;;;;;;;;;5021085;27;92317;-61
2023/12/05 00:41:00;;;;;;;17.38;13.77;;;;;;;;;;5019892;27;94186;-62
2023/12/05 00:43:27;;;;;;;20.30;14.63;;;;;;;;;;5019573;27;93401;-62
2023/12/05 00:45:55;;;;;;;21.45;14.90;;;;;;;;;;5015039;28;93484;-61
2023/12/05 00:48:22;;;;;;;20.40;15.63;;;;;;;;;;5018005;28;93103;-61
2023/12/05 00:50:49;;;;;;;20.13;15.68;;;;;;;;;;5015759;28;95940;-61
2023/12/05 00:53:16;;;;;;;21.00;15.23;;;;;;;;;;5016252;28;92714;-61
2023/12/05 00:55:42;;;;;;;21.85;16.65;;;;;;;;;;5017736;28;96254;-61
2023/12/05 00:58:09;;;;;;;19.63;16.02;;;;;;;;;;5021487;28;94413;-61
2023/12/05 01:00:35;;;;;;;18.48;15.00;;;;;;;;;;5018207;28;92603;-61
2023/12/05 01:03:01;;;;;;;21.80;16.35;;;;;;;;;;5018889;27;93422;-61
2023/12/05 01:05:28;;;;;;;19.25;15.40;;;;;;;;;;5021207;27;92467;-61
2023/12/05 01:07:55;;;;;;;20.02;15.48;;;;;;;;;;5018854;28;94276;-61
2023/12/05 01:10:22;;;;;;;19.52;15.65;;;;;;;;;;5021547;27;93362;-61
2023/12/05 01:12:48;;;;;;;19.65;15.00;;;;;;;;;;5017301;28;91833;-61
2023/12/05 01:15:15;;;;;;;18.65;14.38;;;;;;;;;;5026682;28;93640;-61
2023/12/05 01:17:41;;;;;;;19.40;14.32;;;;;;;;;;5021361;27;94348;-61
2023/12/05 01:20:11;;;;;;;20.05;15.38;;;;;;;;;;5024551;28;94935;-61
2023/12/05 01:22:38;;;;;;;24.52;15.55;;;;;;;;;;5022723;28;94536;-61
2023/12/05 01:25:05;;;;;;;18.00;14.18;;;;;;;;;;5023805;27;92641;-61
2023/12/05 01:27:32;;;;;;;20.20;15.07;;;;;;;;;;5020324;28;94607;-61
2023/12/05 01:29:58;;;;;;;19.52;15.18;;;;;;;;;;5020875;27;93378;-61
2023/12/05 01:32:25;;;;;;;20.05;15.77;;;;;;;;;;5024437;27;92467;-61
2023/12/05 01:34:51;;;;;;;18.65;14.57;;;;;;;;;;5016927;28;93225;-61
2023/12/05 01:37:17;;;;;;;18.33;14.40;;;;;;;;;;5026300;28;92469;-61
2023/12/05 01:39:45;;;;;;;19.08;15.68;;;;;;;;;;5023189;28;92494;-61
2023/12/05 01:42:11;;;;;;;24.92;16.35;;;;;;;;;;5021870;28;93223;-61
2023/12/05 01:44:38;;;;;;;22.77;16.30;;;;;;;;;;5022974;28;95156;-61
2023/12/05 01:47:05;;;;;;;18.80;15.20;;;;;;;;;;5021295;28;96073;-61
2023/12/05 01:49:33;;;;;;;20.42;15.48;;;;;;;;;;5021627;27;93388;-61
2023/12/05 01:52:02;;;;;;;19.20;15.07;;;;;;;;;;5022406;28;92502;-61
2023/12/05 01:54:29;;;;;;;20.25;14.65;;;;;;;;;;5019742;28;93387;-61
2023/12/05 01:56:57;;;;;;;17.83;14.93;;;;;;;;;;5024972;27;93625;-61
2023/12/05 01:59:24;;;;;;;20.65;15.13;;;;;;;;;;5013574;28;92453;-61
2023/12/05 02:01:51;;;;;;;19.65;15.10;;;;;;;;;;5022307;28;93218;-61
2023/12/05 02:04:18;;;;;;;20.58;15.00;;;;;;;;;;5029198;28;93719;-61
2023/12/05 02:06:49;;;;;;;20.83;15.45;;;;;;;;;;5019365;27;94346;-61
2023/12/05 02:09:16;;;;;;;18.85;14.77;;;;;;;;;;5018425;28;95493;-61
2023/12/05 02:11:42;;;;;;;19.63;15.30;;;;;;;;;;5021594;27;92491;-61
2023/12/05 02:14:09;;;;;;;20.23;14.23;;;;;;;;;;5019217;27;93256;-61
2023/12/05 02:16:51;;;;;;;19.77;15.25;;;;;;;;;;5020258;28;93450;-61
2023/12/05 02:19:29;;;;;;;24.08;15.00;;;;;;;;;;5021538;27;92391;-61
2023/12/05 02:21:58;;;;;;;17.88;14.48;;;;;;;;;;5022685;28;94224;-62
2023/12/05 02:24:44;;;;;;;18.90;13.98;;;;;;;;;;5022184;27;93439;-61
2023/12/05 02:27:15;;;;;;;19.08;14.02;;;;;;;;;;5024610;28;91975;-61
2023/12/05 02:29:46;;;;;;;19.92;15.18;;;;;;;;;;5023397;28;94435;-61
2023/12/05 02:32:12;;;;;;;21.75;15.50;;;;;;;;;;5023420;28;92575;-61
2023/12/05 02:34:39;;;;;;;21.15;15.05;;;;;;;;;;5019646;27;95048;-61
2023/12/05 02:37:18;;;;;;;20.63;14.60;;;;;;;;;;5018250;28;93415;-61
2023/12/05 02:39:53;;;;;;;22.50;15.23;;;;;;;;;;5020600;28;93076;-61
2023/12/05 02:42:22;;;;;;;18.70;14.57;;;;;;;;;;5021517;28;93206;-62
2023/12/05 02:44:51;;;;;;;22.30;15.35;;;;;;;;;;5020008;28;93437;-61
2023/12/05 02:47:19;;;;;;;21.30;15.98;;;;;;;;;;5016541;28;92859;-61
2023/12/05 02:49:45;;;;;;;19.65;15.48;;;;;;;;;;5020420;28;93749;-61
2023/12/05 02:52:12;;;;;;;21.42;15.48;;;;;;;;;;5017121;28;91748;-61
2023/12/05 02:54:38;;;;;;;21.17;15.32;;;;;;;;;;5022997;28;92561;-62
2023/12/05 02:57:04;;;;;;;20.75;15.55;;;;;;;;;;5021029;28;94319;-61
2023/12/05 02:59:31;;;;;;;22.88;16.23;;;;;;;;;;5019141;27;94907;-61
2023/12/05 03:01:57;;;;;;;21.98;15.40;;;;;;;;;;5021810;28;95583;-61
2023/12/05 03:04:24;;;;;;;20.90;15.15;;;;;;;;;;5019732;27;93265;-62
2023/12/05 03:06:50;;;;;;;19.45;14.95;;;;;;;;;;5019719;27;92560;-61
2023/12/05 03:09:17;;;;;;;22.42;15.88;;;;;;;;;;5023640;28;93187;-61
2023/12/05 03:11:44;;;;;;;20.27;14.88;;;;;;;;;;5017413;28;92688;-61
2023/12/05 03:14:10;;;;;;;22.45;15.18;;;;;;;;;;5023157;27;94271;-61
2023/12/05 03:16:36;;;;;;;20.65;15.38;;;;;;;;;;5022710;28;92679;-61
2023/12/05 03:19:03;;;;;;;21.42;15.32;;;;;;;;;;5020144;28;92751;-61
2023/12/05 03:21:30;;;;;;;20.05;14.82;;;;;;;;;;5020497;28;93271;-61
2023/12/05 03:23:57;;;;;;;19.58;15.07;;;;;;;;;;5016193;28;96932;-61
2023/12/05 03:26:24;;;;;;;22.20;15.25;;;;;;;;;;5023010;27;92645;-61
2023/12/05 03:28:50;;;;;;;25.17;15.95;;;;;;;;;;5022423;27;94147;-61
2023/12/05 03:31:17;;;;;;;20.33;15.05;;;;;;;;;;5019989;28;93559;-61
2023/12/05 03:33:43;;;;;;;24.05;15.63;;;;;;;;;;5017427;28;93554;-61
2023/12/05 03:36:11;;;;;;;23.10;15.57;;;;;;;;;;5022997;27;93475;-61
2023/12/05 03:38:38;;;;;;;20.90;15.48;;;;;;;;;;5023659;27;92940;-60
2023/12/05 03:41:05;;;;;;;22.38;15.63;;;;;;;;;;5020183;28;93181;-61
2023/12/05 03:43:32;;;;;;;20.95;15.98;;;;;;;;;;5019546;28;93993;-61
2023/12/05 03:45:58;;;;;;;23.48;16.00;;;;;;;;;;5019029;28;92506;-61
2023/12/05 03:48:25;;;;;;;20.77;15.70;;;;;;;;;;5015109;28;94843;-61
2023/12/05 03:50:51;;;;;;;21.05;15.82;;;;;;;;;;5020473;27;94180;-61
2023/12/05 03:53:18;;;;;;;19.77;14.82;;;;;;;;;;5022954;28;92774;-61
2023/12/05 03:55:44;;;;;;;25.08;15.65;;;;;;;;;;5021819;28;94470;-61
2023/12/05 03:58:10;;;;;;;21.13;14.82;;;;;;;;;;5021615;27;92568;-61
2023/12/05 04:00:37;;;;;;;21.15;15.27;;;;;;;;;;5013428;28;94345;-61
2023/12/05 04:03:03;;;;;;;20.95;15.18;;;;;;;;;;5020072;28;94449;-61
2023/12/05 04:05:30;;;;;;;20.55;15.75;;;;;;;;;;5023066;28;92037;-61
2023/12/05 04:07:56;;;;;;;22.92;16.33;;;;;;;;;;5017789;27;92660;-61
2023/12/05 04:10:23;;;;;;;21.98;15.60;;;;;;;;;;5016455;28;94592;-60
2023/12/05 04:12:52;;;;;;;20.83;15.50;;;;;;;;;;5016151;27;94902;-61
2023/12/05 04:15:19;;;;;;;22.13;15.80;;;;;;;;;;5019609;27;96034;-61
2023/12/05 04:17:46;;;;;;;24.88;15.02;;;;;;;;;;5020965;28;92613;-61
2023/12/05 04:20:12;;;;;;;19.05;14.88;;;;;;;;;;5019116;28;94590;-60
2023/12/05 04:22:38;;;;;;;21.13;15.18;;;;;;;;;;5018614;28;93423;-61
2023/12/05 04:25:05;;;;;;;20.98;15.00;;;;;;;;;;5022446;27;92446;-61
2023/12/05 04:27:32;;;;;;;23.17;15.52;;;;;;;;;;5015862;27;94489;-61
2023/12/05 04:29:59;;;;;;;20.15;14.80;;;;;;;;;;5018722;28;93004;-61
2023/12/05 04:32:26;;;;;;;22.42;15.32;;;;;;;;;;5019330;28;92520;-61
2023/12/05 04:34:52;;;;;;;22.92;15.80;;;;;;;;;;5021968;28;93223;-61
2023/12/05 04:37:18;;;;;;;22.00;14.73;;;;;;;;;;5016400;28;95364;-61
2023/12/05 04:39:45;;;;;;;24.63;16.20;;;;;;;;;;5019921;28;95541;-61
2023/12/05 04:42:11;;;;;;;26.35;17.27;;;;;;;;;;5020990;28;93507;-61
2023/12/05 04:44:38;;;;;;;22.90;15.82;;;;;;;;;;5024909;27;92900;-62
2023/12/05 04:47:04;;;;;;;24.40;16.50;;;;;;;;;;5019043;28;94276;-62
2023/12/05 04:49:31;;;;;;;27.35;16.92;;;;;;;;;;5018395;28;93087;-61
2023/12/05 04:51:57;;;;;;;23.95;16.63;;;;;;;;;;5017782;28;93596;-61
2023/12/05 04:54:24;;;;;;;26.52;17.95;;;;;;;;;;5021828;28;92014;-61
2023/12/05 04:56:50;;;;;;;24.92;16.50;;;;;;;;;;5025669;27;94415;-62
2023/12/05 04:59:16;;;;;;;24.95;16.13;;;;;;;;;;5022286;28;93272;-61
2023/12/05 05:01:43;;;;;;;27.08;17.50;;;;;;;;;;5023869;27;95760;-61
2023/12/05 05:04:10;;;;;;;25.85;17.02;;;;;;;;;;5023444;27;92660;-61
2023/12/05 05:06:36;;;;;;;26.88;16.73;;;;;;;;;;5021882;27;92544;-61
2023/12/05 05:09:03;;;;;;;23.10;16.23;;;;;;;;;;5025507;27;92572;-61
2023/12/05 05:11:29;;;;;;;26.75;17.20;;;;;;;;;;5020302;28;92801;-62
2023/12/05 05:13:55;;;;;;;25.83;16.65;;;;;;;;;;5022488;27;93474;-61
2023/12/05 05:16:24;;;;;;;25.42;17.23;;;;;;;;;;5025252;28;92448;-62
2023/12/05 05:18:54;;;;;;;24.85;15.43;;;;;;;;;;5027565;27;91695;-62
2023/12/05 05:21:20;;;;;;;24.15;16.55;;;;;;;;;;5024860;28;93321;-61
2023/12/05 05:23:47;;;;;;;25.27;16.40;;;;;;;;;;5020976;27;92430;-61
2023/12/05 05:26:14;;;;;;;25.88;16.65;;;;;;;;;;5015512;28;94828;-61
2023/12/05 05:28:40;;;;;;;24.05;16.58;;;;;;;;;;5019468;28;93394;-61
2023/12/05 05:31:07;;;;;;;23.70;15.70;;;;;;;;;;5027940;28;92709;-62
2023/12/05 05:33:33;;;;;;;27.67;16.20;;;;;;;;;;5025527;27;93190;-61
2023/12/05 05:35:59;;;;;;;24.65;17.00;;;;;;;;;;5021247;28;93422;-61
2023/12/05 05:38:26;;;;;;;25.58;16.67;;;;;;;;;;5023312;28;92882;-62
2023/12/05 05:41:02;;;;;;;25.77;16.52;;;;;;;;;;5022321;28;94246;-61
2023/12/05 05:43:28;;;;;;;25.25;15.98;;;;;;;;;;5019624;28;91838;-62
2023/12/05 05:45:54;;;;;;;26.92;16.67;;;;;;;;;;5017936;28;92567;-62
2023/12/05 05:48:21;;;;;;;24.58;15.48;;;;;;;;;;5021911;28;93162;-61
2023/12/05 05:50:47;;;;;;;26.13;16.88;;;;;;;;;;5022131;28;94870;-60
2023/12/05 05:53:14;;;;;;;24.73;16.38;;;;;;;;;;5021757;27;95566;-61
2023/12/05 05:55:40;;;;;;;26.42;16.85;;;;;;;;;;5017943;27;93384;-62
2023/12/05 05:58:10;;;;;;;27.95;17.63;;;;;;;;;;5023194;27;92416;-62
2023/12/05 06:00:36;;;;;;;25.65;17.20;;;;;;;;;;5018274;27;95543;-62
2023/12/05 06:03:03;;;;;;;27.02;17.77;;;;;;;;;;5025287;28;93577;-62
2023/12/05 06:05:29;;;;;;;29.40;17.17;;;;;;;;;;5014215;28;93020;-61
2023/12/05 06:07:56;;;;;;;24.83;16.77;;;;;;;;;;5024466;28;92829;-61
2023/12/05 06:10:23;;;;;;;25.75;17.02;;;;;;;;;;5022711;27;92492;-62
2023/12/05 06:12:49;;;;;;;27.23;17.08;;;;;;;;;;5023890;28;93173;-62
2023/12/05 06:15:16;;;;;;;26.42;17.05;;;;;;;;;;5019779;28;97855;-62
2023/12/05 06:17:42;;;;;;;24.65;16.40;;;;;;;;;;5018194;28;94941;-62
2023/12/05 06:20:08;;;;;;;26.17;16.88;;;;;;;;;;5024447;27;92487;-61
2023/12/05 06:22:35;;;;;;;26.52;17.15;;;;;;;;;;5027611;27;93496;-62
2023/12/05 06:25:01;;;;;;;24.10;16.30;;;;;;;;;;5022601;28;92766;-61
2023/12/05 06:27:27;;;;;;;26.75;16.98;;;;;;;;;;5021718;28;93488;-62
2023/12/05 06:29:54;;;;;;;26.48;16.77;;;;;;;;;;5019810;28;92577;-62
2023/12/05 06:32:21;;;;;;;27.60;17.52;;;;;;;;;;5021769;28;93317;-61
2023/12/05 06:34:48;;;;;;;30.33;17.92;;;;;;;;;;5020418;28;93710;-61
2023/12/05 06:37:14;;;;;;;26.80;16.85;;;;;;;;;;5020103;28;92486;-61
2023/12/05 06:39:40;;;;;;;31.75;18.42;;;;;;;;;;5019074;27;95368;-61
2023/12/05 06:42:07;;;;;;;27.58;17.73;;;;;;;;;;5016632;28;93872;-61
2023/12/05 06:44:33;;;;;;;27.42;17.42;;;;;;;;;;5021518;28;93725;-61
2023/12/05 06:47:00;;;;;;;29.98;17.27;;;;;;;;;;5019806;28;93388;-61
2023/12/05 06:49:26;;;;;;;26.20;16.98;;;;;;;;;;5019936;27;92451;-62
2023/12/05 06:51:57;;;;;;;25.98;17.48;;;;;;;;;;5020720;28;93126;-61
2023/12/05 06:54:23;;;;;;;27.65;17.42;;;;;;;;;;5019363;28;92566;-61
2023/12/05 06:56:49;;;;;;;29.52;18.15;;;;;;;;;;5022703;28;91847;-61
2023/12/05 06:59:16;;;;;;;28.48;17.00;;;;;;;;;;5018827;27;92755;-61
2023/12/05 07:01:42;;;;;;;27.85;18.05;;;;;;;;;;5020805;27;93434;-61
2023/12/05 07:04:08;;;;;;;33.22;19.27;;;;;;;;;;5014535;28;94934;-61
2023/12/05 07:06:35;;;;;;;28.33;17.73;;;;;;;;;;5020521;28;95636;-61
2023/12/05 07:09:01;;;;;;;29.17;17.75;;;;;;;;;;5021060;27;92936;-61
2023/12/05 07:11:28;;;;;;;29.55;17.83;;;;;;;;;;5017203;28;93401;-61
2023/12/05 07:13:54;;;;;;;25.10;17.17;;;;;;;;;;5019885;27;93423;-61
2023/12/05 07:16:21;;;;;;;26.20;17.08;;;;;;;;;;5023882;27;92478;-61
2023/12/05 07:18:49;;;;;;;27.55;16.73;;;;;;;;;;5019433;27;93174;-62
2023/12/05 07:21:15;;;;;;;27.17;17.17;;;;;;;;;;5020333;28;92866;-61
2023/12/05 07:23:42;;;;;;;26.70;17.35;;;;;;;;;;5020993;28;94264;-61
2023/12/05 07:26:15;;;;;;;24.77;15.48;;;;;;;;;;5022251;27;94539;-61
2023/12/05 07:28:43;;;;;;;29.90;18.20;;;;;;;;;;5021968;28;95759;-62
2023/12/05 07:31:10;;;;;;;26.85;16.75;;;;;;;;;;5015620;28;95565;-61
2023/12/05 07:33:37;;;;;;;25.38;16.70;;;;;;;;;;5018816;28;93464;-64
2023/12/05 07:36:04;;;;;;;24.48;16.17;;;;;;;;;;5018459;27;92522;-62
2023/12/05 07:38:30;;;;;;;25.77;16.58;;;;;;;;;;5022366;27;94257;-62
2023/12/05 07:40:56;;;;;;;27.02;16.40;;;;;;;;;;5021538;28;94398;-63
2023/12/05 07:43:23;;;;;;;28.67;16.77;;;;;;;;;;5020134;27;92502;-62
2023/12/05 07:45:50;;;;;;;28.70;17.83;;;;;;;;;;5020082;27;93169;-62
2023/12/05 07:48:16;;;;;;;27.23;17.38;;;;;;;;;;5023277;27;93464;-62
2023/12/05 07:50:43;;;;;;;24.48;16.15;;;;;;;;;;5019727;28;92514;-62
2023/12/05 07:53:10;;;;;;;27.83;16.67;;;;;;;;;;5018439;27;95782;-60
2023/12/05 07:55:36;;;;;;;26.70;16.50;;;;;;;;;;5013073;27;92367;-62
2023/12/05 07:58:03;;;;;;;29.60;16.92;;;;;;;;;;5020608;28;93099;-62
2023/12/05 08:00:30;;;;;;;26.02;16.77;;;;;;;;;;5024293;28;97038;-62
2023/12/05 08:02:57;;;;;;;23.42;16.50;;;;;;;;;;5021832;28;92431;-62
2023/12/05 08:05:24;;;;;;;27.58;15.50;;;;;;;;;;5021927;27;94644;-62
2023/12/05 08:07:50;;;;;;;23.98;16.23;;;;;;;;;;5019751;28;93431;-62
2023/12/05 08:10:17;;;;;;;24.90;15.90;;;;;;;;;;5020998;27;94304;-62
2023/12/05 08:12:43;;;;;;;26.13;16.55;;;;;;;;;;5024386;27;93478;-61
2023/12/05 08:15:09;;;;;;;24.27;15.30;;;;;;;;;;5024382;27;92501;-59
2023/12/05 08:17:36;;;;;;;25.38;15.90;;;;;;;;;;5018852;28;95285;-60
2023/12/05 08:20:03;;;;;;;26.13;16.30;;;;;;;;;;5014761;28;93515;-60
2023/12/05 08:22:30;;;;;;;23.92;15.93;;;;;;;;;;5018000;28;92451;-60
2023/12/05 08:24:56;;;;;;;25.33;16.23;;;;;;;;;;5021966;27;93134;-61
2023/12/05 08:27:23;;;;;;;23.50;16.05;;;;;;;;;;5022301;27;93409;-61
2023/12/05 08:29:49;;;;;;;23.30;15.07;;;;;;;;;;5020155;27;92697;-60
2023/12/05 08:32:15;;;;;;;22.60;15.02;;;;;;;;;;5022059;28;92521;-61
2023/12/05 08:34:41;;;;;;;22.23;14.20;;;;;;;;;;5022967;28;93745;-61
2023/12/05 08:37:08;;;;;;;20.85;13.93;;;;;;;;;;5014605;28;93821;-62
2023/12/05 08:39:34;;;;;;;20.70;14.32;;;;;;;;;;5020472;27;93464;-60
2023/12/05 08:42:01;;;;;;;20.63;13.82;;;;;;;;;;5019688;27;95477;-62
2023/12/05 08:44:28;;;;;;;21.23;14.32;;;;;;;;;;5022709;28;95577;-61
2023/12/05 08:46:54;;;;;;;24.83;14.82;;;;;;;;;;5017709;27;93482;-61
2023/12/05 08:49:21;;;;;;;20.65;14.50;;;;;;;;;;5020212;28;92535;-61
2023/12/05 08:51:47;;;;;;;25.90;14.80;;;;;;;;;;5018202;27;92686;-62
2023/12/05 08:54:14;;;;;;;21.08;14.52;;;;;;;;;;5027175;28;93402;-61
2023/12/05 08:56:40;;;;;;;25.33;15.02;;;;;;;;;;5015781;28;94181;-62
2023/12/05 08:59:07;;;;;;;23.25;15.70;;;;;;;;;;5022644;27;92723;-61
2023/12/05 09:01:33;;;;;;;20.17;14.40;;;;;;;;;;5021185;28;93807;-60
2023/12/05 09:03:59;;;;;;;21.52;14.18;;;;;;;;;;5022362;27;93191;-61
2023/12/05 09:06:26;;;;;;;22.35;13.68;;;;;;;;;;5014289;27;95804;-61
2023/12/05 09:08:54;;;;;;;22.33;15.32;;;;;;;;;;5020502;28;92587;-61
2023/12/05 09:11:20;;;;;;;22.60;14.50;;;;;;;;;;5020492;27;93167;-61
2023/12/05 09:13:47;;;;;;;20.10;12.80;;;;;;;;;;5017115;28;93605;-61
2023/12/05 09:16:13;;;;;;;21.50;14.52;;;;;;;;;;5014744;28;92465;-61
2023/12/05 09:18:39;;;;;;;19.95;13.50;;;;;;;;;;5015967;28;94407;-60
2023/12/05 09:21:08;;;;;;;22.15;14.48;;;;;;;;;;5016398;28;92519;-61
2023/12/05 09:23:34;;;;;;;20.13;14.07;;;;;;;;;;5011349;28;94183;-64
2023/12/05 09:26:00;;;;;;;22.85;14.05;;;;;;;;;;5019223;27;94434;-63
2023/12/05 09:28:28;;;;;;;22.15;14.10;;;;;;;;;;5018362;27;94284;-63
2023/12/05 09:30:54;;;;;;;24.08;14.13;;;;;;;;;;5012822;28;94801;-62
2023/12/05 09:33:20;;;;;;;18.25;13.52;;;;;;;;;;5026120;27;93236;-60
2023/12/05 09:35:47;;;;;;;19.85;13.40;;;;;;;;;;5014212;28;93686;-62
2023/12/05 09:38:13;;;;;;;23.15;14.02;;;;;;;;;;5020494;27;94194;-62
2023/12/05 09:40:40;;;;;;;20.30;14.20;;;;;;;;;;5019888;27;92534;-63
2023/12/05 09:43:07;;;;;;;23.30;13.80;;;;;;;;;;5022545;28;95638;-63
2023/12/05 09:45:42;;;;;;;26.65;13.77;;;;;;;;;;5022892;27;93722;-63
2023/12/05 09:48:10;;;;;;;24.67;14.80;;;;;;;;;;5027549;28;91838;-62
2023/12/05 09:50:37;;;;;;;22.88;15.00;;;;;;;;;;5025427;28;92430;-63
2023/12/05 09:53:04;;;;;;;25.20;15.77;;;;;;;;;;5023423;27;93447;-63
2023/12/05 09:55:34;;;;;;;21.00;15.00;;;;;;;;;;5020884;28;94890;-63
2023/12/05 09:58:01;;;;;;;25.38;16.13;;;;;;;;;;5023561;28;95483;-63
2023/12/05 10:00:28;;;;;;;24.05;15.93;;;;;;;;;;5029506;27;95377;-63
2023/12/05 10:02:56;;;;;;;28.92;17.08;;;;;;;;;;5024552;27;93432;-63
2023/12/05 10:05:23;;;;;;;28.40;17.88;;;;;;;;;;5022540;28;93299;-63
2023/12/05 10:07:50;;;;;;;27.27;16.90;;;;;;;;;;5021928;28;92776;-63
2023/12/05 10:10:17;;;;;;;28.00;17.60;;;;;;;;;;5022100;28;93188;-62
2023/12/05 10:12:45;;;;;;;26.23;16.27;;;;;;;;;;5019324;28;92624;-63
2023/12/05 10:15:11;;;;;;;30.50;17.95;;;;;;;;;;5025043;28;92577;-63
2023/12/05 10:17:38;;;;;;;30.15;17.60;;;;;;;;;;5021990;27;93372;-63
2023/12/05 10:20:05;;;;;;;30.25;18.13;;;;;;;;;;5022569;28;95861;-62
2023/12/05 10:22:31;;;;;;;30.35;18.95;;;;;;;;;;5026897;27;92441;-63
2023/12/05 10:24:58;;;;;;;30.73;18.70;;;;;;;;;;5022933;28;94429;-63
2023/12/05 10:27:25;;;;;;;32.03;19.75;;;;;;;;;;5020677;27;92778;-63
2023/12/05 10:29:52;;;;;;;43.22;21.05;;;;;;;;;;5021045;27;93163;-63
2023/12/05 10:32:24;;;;;;;31.85;20.13;;;;;;;;;;5024693;27;93395;-62
2023/12/05 10:34:52;;;;;;;35.63;21.20;;;;;;;;;;5018796;28;92571;-63
2023/12/05 10:37:22;;;;;;;32.30;18.95;;;;;;;;;;5025699;27;93209;-63
2023/12/05 10:39:51;;;;;;;34.13;20.80;;;;;;;;;;5018208;28;93421;-63
2023/12/05 10:42:21;;;;;;;36.45;20.13;;;;;;;;;;5019860;28;92520;-63
2023/12/05 10:44:47;;;;;;;33.35;20.67;;;;;;;;;;5023269;28;94901;-62
2023/12/05 10:47:14;;;;;;;34.10;19.85;;;;;;;;;;5022004;27;92559;-63
2023/12/05 10:49:44;;;;;;;35.13;20.90;;;;;;;;;;5021495;28;93204;-63
2023/12/05 10:52:14;;;;;;;33.05;20.08;;;;;;;;;;5023178;28;93408;-63
2023/12/05 10:54:41;;;;;;;32.87;20.30;;;;;;;;;;5021597;27;92445;-62
2023/12/05 10:57:10;;;;;;;35.33;20.05;;;;;;;;;;5023785;28;93603;-63
2023/12/05 10:59:37;;;;;;;39.13;21.88;;;;;;;;;;5024523;27;93414;-63
2023/12/05 11:02:12;;;;;;;34.80;21.00;;;;;;;;;;5023663;27;91703;-63
2023/12/05 11:04:40;;;;;;;36.20;21.23;;;;;;;;;;5026830;28;93478;-63
2023/12/05 11:07:10;;;;;;;35.88;21.27;;;;;;;;;;5022378;27;92475;-63
2023/12/05 11:09:41;;;;;;;33.43;20.40;;;;;;;;;;5018936;28;94932;-63
2023/12/05 11:12:07;;;;;;;;;;;;;;;;;;5023554;28;93196;-63
2023/12/05 11:14:36;;;;;;;33.08;19.70;;;;;;;;;;5024642;27;120565;-63
2023/12/05 11:17:03;;;;;;;35.40;19.63;;;;;;;;;;5025395;28;94959;-62
2023/12/05 11:19:51;;;;;;;35.53;20.95;;;;;;;;;;5020909;28;93432;-62
2023/12/05 11:22:26;;;;;;;37.33;20.92;;;;;;;;;;5014009;27;92804;-63
2023/12/05 11:25:01;;;;;;;35.13;20.38;;;;;;;;;;5011416;28;98453;-65
2023/12/05 11:27:46;;;;;;;30.20;19.73;;;;;;;;;;5015228;28;99036;-65
2023/12/05 11:30:31;;;;;;;32.85;19.38;;;;;;;;;;5012739;28;98686;-64
2023/12/05 11:33:04;;;;;;;33.22;20.05;;;;;;;;;;5017413;28;100490;-64
2023/12/05 11:35:36;;;;;;;33.90;20.58;;;;;;;;;;5017961;27;99297;-63
2023/12/05 11:38:12;;;;;;;33.05;20.27;;;;;;;;;;5015200;28;101176;-63
2023/12/05 11:40:39;;;;;;;31.27;19.20;;;;;;;;;;5015188;28;100454;-63
2023/12/05 11:43:12;;;;;;;30.50;17.75;;;;;;;;;;5017119;27;98843;-64
2023/12/05 11:45:42;;;;;;;30.60;18.33;;;;;;;;;;5018593;28;100305;-63
2023/12/05 11:48:09;;;;;;;40.03;19.90;;;;;;;;;;5006704;28;99839;-63
2023/12/05 11:50:44;;;;;;;28.35;17.50;;;;;;;;;;5013158;28;99125;-63
2023/12/05 11:53:19;;;;;;;30.63;19.20;;;;;;;;;;5016800;27;100138;-64
2023/12/05 11:55:47;;;;;;;29.40;18.88;;;;;;;;;;5015049;28;98883;-63
2023/12/05 11:58:29;;;;;;;32.80;19.05;;;;;;;;;;5013422;28;99250;-64
2023/12/05 12:01:03;;;;;;;30.95;18.83;;;;;;;;;;5011606;28;100411;-64
2023/12/05 12:03:48;;;;;;;32.22;19.20;;;;;;;;;;5014930;28;98602;-63
2023/12/05 12:06:16;;;;;;;32.35;19.17;;;;;;;;;;5016750;27;99185;-63
2023/12/05 12:08:44;;;;;;;31.35;19.45;;;;;;;;;;5013601;28;99595;-63
2023/12/05 12:11:11;;;;;;;37.60;19.75;;;;;;;;;;5011389;27;100068;-62
2023/12/05 12:13:38;;;;;;;28.33;18.63;;;;;;;;;;5020761;28;100488;-63
2023/12/05 12:16:05;;;;;;;30.88;19.48;;;;;;;;;;5018519;27;98586;-64
2023/12/05 12:18:31;;;;;;;31.42;19.58;;;;;;;;;;5015664;28;100233;-63
2023/12/05 12:21:08;;;;;;;31.55;19.33;;;;;;;;;;5015111;27;99545;-63
2023/12/05 12:23:35;;;;;;;32.35;19.75;;;;;;;;;;5016627;27;98599;-62
2023/12/05 12:26:02;;;;;;;33.25;19.05;;;;;;;;;;5011890;27;100306;-63
2023/12/05 12:28:29;;;;;;;33.08;19.77;;;;;;;;;;5015163;27;100070;-63
2023/12/05 12:30:56;;;;;;;32.03;19.80;;;;;;;;;;5012549;28;98796;-64
2023/12/05 12:33:28;;;;;;;32.20;19.58;;;;;;;;;;5015455;27;100202;-63
2023/12/05 12:35:55;;;;;;;31.13;19.75;;;;;;;;;;5020149;28;99497;-64
2023/12/05 12:38:22;;;;;;;28.35;19.15;;;;;;;;;;5017379;27;100253;-64
2023/12/05 12:40:50;;;;;;;29.88;18.90;;;;;;;;;;5011413;27;99456;-64
2023/12/05 12:43:16;;;;;;;31.67;18.95;;;;;;;;;;5016861;28;97921;-64
2023/12/05 12:45:43;;;;;;;32.50;19.67;;;;;;;;;;5012957;27;98623;-62
2023/12/05 12:48:09;;;;;;;31.95;19.75;;;;;;;;;;5017709;27;100436;-63
2023/12/05 12:50:35;;;;;;;30.42;17.60;;;;;;;;;;5017229;28;99565;-63
2023/12/05 12:53:02;;;;;;;27.25;17.65;;;;;;;;;;5017043;27;100011;-61
2023/12/05 12:55:28;;;;;;;34.90;20.92;;;;;;;;;;5010606;27;100499;-61
2023/12/05 12:57:55;;;;;;;28.95;19.38;;;;;;;;;;5024199;27;98609;-62
2023/12/05 13:00:21;;;;;;;31.67;19.05;;;;;;;;;;5016965;28;99653;-62
2023/12/05 13:03:02;;;;;;;28.75;18.00;;;;;;;;;;5008243;28;100726;-61
2023/12/05 13:05:32;;;;;;;28.55;18.85;;;;;;;;;;5006220;28;99151;-61
2023/12/05 13:08:00;;;;;;;32.45;20.02;;;;;;;;;;5014332;28;98725;-62
2023/12/05 13:10:27;;;;;;;30.92;19.48;;;;;;;;;;5021464;27;98651;-62
2023/12/05 13:12:54;;;;;;;35.25;20.38;;;;;;;;;;5019726;27;99431;-62
2023/12/05 13:15:25;;;;;;;27.67;18.17;;;;;;;;;;5013645;28;100283;-62
2023/12/05 13:17:58;;;;;;;33.85;19.92;;;;;;;;;;5020565;28;98726;-62
2023/12/05 13:20:25;;;;;;;34.50;20.48;;;;;;;;;;5019148;28;99410;-62
2023/12/05 13:22:52;;;;;;;33.22;21.27;;;;;;;;;;5018796;27;98488;-61
2023/12/05 13:25:18;;;;;;;38.53;21.77;;;;;;;;;;5020368;28;100396;-62
2023/12/05 13:27:48;;;;;;;37.22;22.08;;;;;;;;;;5016630;28;99562;-62
2023/12/05 13:30:15;;;;;;;35.67;21.50;;;;;;;;;;5020571;28;98497;-62
2023/12/05 13:32:43;;;;;;;41.80;22.08;;;;;;;;;;5016764;27;99470;-61
2023/12/05 13:35:09;;;;;;;32.33;20.23;;;;;;;;;;5015345;27;99444;-61
2023/12/05 13:37:36;;;;;;;31.67;19.52;;;;;;;;;;5019001;28;98651;-62
2023/12/05 13:40:04;;;;;;;30.15;19.38;;;;;;;;;;5019387;28;100299;-62
2023/12/05 13:42:30;;;;;;;35.38;20.70;;;;;;;;;;5013988;28;98848;-62
2023/12/05 13:44:57;;;;;;;34.88;20.63;;;;;;;;;;5018072;27;99210;-61
2023/12/05 13:47:23;;;;;;;35.40;21.20;;;;;;;;;;5016087;27;99480;-62
2023/12/05 13:49:50;;;;;;;37.45;20.75;;;;;;;;;;5019509;27;98792;-61
2023/12/05 13:52:16;;;;;;;35.20;21.33;;;;;;;;;;5016689;28;99823;-62
2023/12/05 13:54:43;;;;;;;34.78;21.02;;;;;;;;;;5018851;27;99496;-61
2023/12/05 13:57:10;;;;;;;37.03;21.23;;;;;;;;;;5013514;28;98071;-62
2023/12/05 13:59:36;;;;;;;36.28;22.33;;;;;;;;;;5017146;27;98581;-62
2023/12/05 14:02:02;;;;;;;38.95;22.15;;;;;;;;;;5017725;28;99811;-62
2023/12/05 14:04:29;;;;;;;38.83;21.17;;;;;;;;;;5020715;28;101455;-62
2023/12/05 14:06:56;;;;;;;38.47;21.40;;;;;;;;;;5015489;28;99479;-62
2023/12/05 14:09:22;;;;;;;37.15;20.42;;;;;;;;;;5018480;27;98575;-62
2023/12/05 14:11:51;;;;;;;39.35;22.25;;;;;;;;;;5019547;28;99179;-62
2023/12/05 14:14:17;;;;;;;37.15;21.50;;;;;;;;;;5017092;27;100290;-62
2023/12/05 14:16:43;;;;;;;37.03;22.23;;;;;;;;;;5014673;28;98633;-61
2023/12/05 14:19:10;;;;;;;34.17;21.10;;;;;;;;;;5019947;27;100219;-62